createdAt,value
2023-02-18T00:00:14.697Z,99369.00
2023-02-18T00:02:42.311Z,99361.25
2023-02-18T00:05:09.597Z,99353.37
2023-02-18T00:07:37.073Z,99354.19
2023-02-18T00:10:05.183Z,99362.88
2023-02-18T00:12:33.126Z,99360.22
2023-02-18T00:15:00.269Z,99353.19
2023-02-18T00:17:28.574Z,99363.72
2023-02-18T00:19:57.117Z,99341.22
2023-02-18T00:22:24.537Z,99348.16
2023-02-18T00:24:52.011Z,99350.75
2023-02-18T00:27:19.180Z,99333.38
2023-02-18T00:29:46.341Z,99334.28
2023-02-18T00:32:13.816Z,99339.47
2023-02-18T00:34:41.001Z,99342.97
2023-02-18T00:37:08.178Z,99339.47
2023-02-18T00:39:35.646Z,99330.78
2023-02-18T00:42:02.809Z,99344.59
2023-02-18T00:44:30.023Z,99338.50
2023-02-18T00:46:57.995Z,99325.59
2023-02-18T00:49:25.178Z,99316.00
2023-02-18T00:51:52.426Z,99315.13
2023-02-18T00:54:19.876Z,99327.28
2023-02-18T00:56:47.070Z,99321.25
2023-02-18T00:59:14.385Z,99322.91
2023-02-18T01:01:41.946Z,99313.41
2023-02-18T01:04:09.142Z,99319.47
2023-02-18T01:06:36.324Z,99320.38
2023-02-18T01:09:04.180Z,99322.09
2023-02-18T01:11:31.452Z,99329.03
2023-02-18T01:13:58.632Z,99326.44
2023-02-18T01:16:26.215Z,99315.09
2023-02-18T01:18:53.433Z,99321.13
2023-02-18T01:21:20.662Z,99317.69
2023-02-18T01:23:48.098Z,99319.47
2023-02-18T01:26:16.190Z,99316.00
2023-02-18T01:28:44.298Z,99313.38
2023-02-18T01:31:13.329Z,99308.19
2023-02-18T01:33:40.698Z,99301.25
2023-02-18T01:36:08.589Z,99302.03
2023-02-18T01:38:36.476Z,99298.56
2023-02-18T01:41:03.756Z,99286.41
2023-02-18T01:43:30.910Z,99286.38
2023-02-18T01:46:07.947Z,99279.28
2023-02-18T01:48:35.322Z,99287.25
2023-02-18T01:51:23.004Z,99284.59
2023-02-18T01:53:57.333Z,99271.38
2023-02-18T01:56:29.416Z,99280.91
2023-02-18T01:58:57.386Z,99278.25
2023-02-18T02:01:25.181Z,99270.78
2023-02-18T02:03:52.613Z,99275.94
2023-02-18T02:06:20.693Z,99273.00
2023-02-18T02:08:51.275Z,99283.31
2023-02-18T02:11:37.342Z,99283.44
2023-02-18T02:14:04.499Z,99293.06
2023-02-18T02:16:37.951Z,99287.06
2023-02-18T02:19:15.068Z,99271.56
2023-02-18T02:21:54.735Z,99272.31
2023-02-18T02:24:34.864Z,99284.34
2023-02-18T02:27:20.666Z,99286.16
2023-02-18T02:30:00.240Z,99274.34
2023-02-18T02:32:36.577Z,99274.44
2023-02-18T02:35:06.829Z,99274.56
2023-02-18T02:37:34.059Z,99261.16
2023-02-18T02:40:12.457Z,99262.31
2023-02-18T02:43:02.160Z,99258.84
2023-02-18T02:45:36.595Z,99253.44
2023-02-18T02:48:06.624Z,99253.37
2023-02-18T02:50:42.009Z,99258.06
2023-02-18T02:53:17.515Z,99241.44
2023-02-18T02:55:45.896Z,99252.25
2023-02-18T02:58:17.478Z,99263.72
2023-02-18T03:00:44.752Z,99257.53
2023-02-18T03:03:31.414Z,99263.69
2023-02-18T03:06:02.314Z,99270.53
2023-02-18T03:08:37.335Z,99252.88
2023-02-18T03:11:06.323Z,99274.06
2023-02-18T03:13:34.936Z,99279.19
2023-02-18T03:16:05.314Z,99297.47
2023-02-18T03:18:40.425Z,99286.19
2023-02-18T03:21:10.817Z,99287.75
2023-02-18T03:23:40.271Z,99308.94
2023-02-18T03:26:07.682Z,99292.81
2023-02-18T03:28:35.110Z,99292.94
2023-02-18T03:31:05.822Z,99286.28
2023-02-18T03:33:35.464Z,99302.56
2023-02-18T03:36:02.980Z,99289.53
2023-02-18T03:38:32.350Z,99290.28
2023-02-18T03:40:59.578Z,99299.44
2023-02-18T03:43:27.449Z,99293.91
2023-02-18T03:45:54.676Z,99281.56
2023-02-18T03:48:21.976Z,99296.47
2023-02-18T03:50:52.348Z,99297.53
2023-02-18T03:53:19.573Z,99308.03
2023-02-18T03:55:46.723Z,99301.75
2023-02-18T03:58:14.203Z,99298.56
2023-02-18T04:00:41.349Z,99308.78
2023-02-18T04:03:08.882Z,99292.78
2023-02-18T04:05:36.619Z,99301.59
2023-02-18T04:08:03.865Z,99314.44
2023-02-18T04:10:31.361Z,99308.09
2023-02-18T04:12:58.512Z,99304.50
2023-02-18T04:15:25.717Z,99311.59
2023-02-18T04:17:53.184Z,99327.69
2023-02-18T04:20:20.353Z,99316.75
2023-02-18T04:22:47.529Z,99331.56
2023-02-18T04:25:15.008Z,99322.09
2023-02-18T04:27:42.307Z,99329.03
2023-02-18T04:30:09.771Z,99316.72
2023-02-18T04:32:37.324Z,99329.66
2023-02-18T04:35:04.884Z,99320.34
2023-02-18T04:37:32.023Z,99315.94
2023-02-18T04:39:59.426Z,99323.81
2023-02-18T04:42:26.574Z,99329.75
2023-02-18T04:44:53.754Z,99333.78
2023-02-18T04:47:21.240Z,99338.53
2023-02-18T04:49:48.489Z,99342.09
2023-02-18T04:52:15.697Z,99335.12
2023-02-18T04:54:43.164Z,99333.34
2023-02-18T04:57:10.368Z,99341.09
2023-02-18T04:59:37.639Z,99338.41
2023-02-18T05:02:05.057Z,99341.00
2023-02-18T05:04:32.217Z,99331.31
2023-02-18T05:06:59.389Z,99335.81
2023-02-18T05:09:26.825Z,99340.25
2023-02-18T05:11:54.055Z,99352.38
2023-02-18T05:14:21.269Z,99354.81
2023-02-18T05:16:48.735Z,99374.22
2023-02-18T05:19:16.497Z,99366.22
2023-02-18T05:21:43.846Z,99375.66
2023-02-18T05:24:11.276Z,99371.75
2023-02-18T05:26:38.440Z,99381.34
2023-02-18T05:29:05.857Z,99383.53
2023-02-18T05:31:33.407Z,99373.41
2023-02-18T05:34:00.669Z,99390.81
2023-02-18T05:36:27.884Z,99389.88
2023-02-18T05:38:55.343Z,99398.47
2023-02-18T05:41:22.678Z,99404.53
2023-02-18T05:44:08.506Z,99415.00
2023-02-18T05:46:35.955Z,99410.44
2023-02-18T05:49:03.117Z,99412.38
2023-02-18T05:51:30.274Z,99412.16
2023-02-18T05:53:57.690Z,99422.78
2023-02-18T05:56:24.828Z,99429.63
2023-02-18T05:58:52.016Z,99441.16
2023-02-18T06:01:19.457Z,99449.00
2023-02-18T06:03:46.902Z,99448.09
2023-02-18T06:06:14.171Z,99449.75
2023-02-18T06:08:41.430Z,99462.13
2023-02-18T06:11:08.902Z,99442.13
2023-02-18T06:13:36.105Z,99463.88
2023-02-18T06:16:03.303Z,99461.28
2023-02-18T06:18:30.728Z,99448.97
2023-02-18T06:20:57.887Z,99455.66
2023-02-18T06:23:25.034Z,99467.34
2023-02-18T06:25:52.461Z,99462.78
2023-02-18T06:28:19.656Z,99470.69
2023-02-18T06:30:46.829Z,99475.09
2023-02-18T06:33:14.292Z,99482.94
2023-02-18T06:35:41.434Z,99489.09
2023-02-18T06:38:08.749Z,99497.78
2023-02-18T06:40:36.278Z,99489.09
2023-02-18T06:43:03.434Z,99473.41
2023-02-18T06:45:30.638Z,99470.78
2023-02-18T06:47:58.096Z,99476.97
2023-02-18T06:50:25.258Z,99482.09
2023-02-18T06:52:52.414Z,99481.28
2023-02-18T06:55:19.927Z,99484.72
2023-02-18T06:57:47.088Z,99475.19
2023-02-18T07:00:14.449Z,99484.69
2023-02-18T07:02:41.876Z,99482.03
2023-02-18T07:05:09.068Z,99494.06
2023-02-18T07:07:36.222Z,99485.47
2023-02-18T07:10:03.909Z,99485.53
2023-02-18T07:12:31.098Z,99486.41
2023-02-18T07:14:58.260Z,99483.91
2023-02-18T07:17:25.709Z,99492.59
2023-02-18T07:19:52.917Z,99479.50
2023-02-18T07:22:20.068Z,99494.28
2023-02-18T07:24:50.906Z,99499.53
2023-02-18T07:27:18.124Z,99485.59
2023-02-18T07:29:45.285Z,99489.13
2023-02-18T07:32:13.072Z,99488.25
2023-02-18T07:34:40.313Z,99489.06
2023-02-18T07:37:09.405Z,99485.09
2023-02-18T07:39:37.010Z,99481.97
2023-02-18T07:42:04.239Z,99485.31
2023-02-18T07:44:32.818Z,99480.38
2023-02-18T07:47:00.294Z,99481.28
2023-02-18T07:49:27.445Z,99475.81
2023-02-18T07:51:54.573Z,99477.75
2023-02-18T07:54:22.067Z,99476.19
2023-02-18T07:56:49.362Z,99473.19
2023-02-18T07:59:16.497Z,99479.91
2023-02-18T08:01:45.061Z,99492.00
2023-02-18T08:04:12.662Z,99491.34
2023-02-18T08:06:40.948Z,99490.53
2023-02-18T08:09:08.172Z,99489.72
2023-02-18T08:11:35.638Z,99489.34
2023-02-18T08:14:02.791Z,99494.06
2023-02-18T08:16:30.064Z,99484.31
2023-02-18T08:18:58.760Z,99491.66
2023-02-18T08:21:26.160Z,99488.69
2023-02-18T08:23:53.660Z,99480.06
2023-02-18T08:26:21.397Z,99481.91
2023-02-18T08:28:48.826Z,99482.47
2023-02-18T08:31:23.151Z,99490.50
2023-02-18T08:33:51.038Z,99482.72
2023-02-18T08:36:18.462Z,99490.75
2023-02-18T08:38:45.702Z,99489.06
2023-02-18T08:41:15.675Z,99483.03
2023-02-18T08:43:43.117Z,99486.84
2023-02-18T08:46:15.864Z,99490.94
2023-02-18T08:48:45.606Z,99485.91
2023-02-18T08:51:13.908Z,99475.63
2023-02-18T08:53:41.104Z,99474.19
2023-02-18T08:56:09.741Z,99473.69
2023-02-18T08:58:37.416Z,99465.63
2023-02-18T09:01:05.537Z,99473.13
2023-02-18T09:03:33.329Z,99469.59
2023-02-18T09:06:00.475Z,99468.41
2023-02-18T09:08:28.274Z,99465.63
2023-02-18T09:10:56.693Z,99469.91
2023-02-18T09:13:23.960Z,99475.69
2023-02-18T09:16:20.137Z,99473.63
2023-02-18T09:18:47.883Z,99469.41
2023-02-18T09:21:15.940Z,99461.44
2023-02-18T09:23:43.320Z,99463.22
2023-02-18T09:26:11.950Z,99460.37
2023-02-18T09:28:39.076Z,99451.22
2023-02-18T09:31:10.739Z,99453.59
2023-02-18T09:33:39.743Z,99457.28
2023-02-18T09:36:07.231Z,99461.34
2023-02-18T09:38:34.394Z,99455.31
2023-02-18T09:41:02.623Z,99450.84
2023-02-18T09:43:41.656Z,99454.34
2023-02-18T09:46:29.279Z,99463.62
2023-02-18T09:48:56.431Z,99468.56
2023-02-18T09:51:23.850Z,99452.16
2023-02-18T09:53:51.010Z,99461.50
2023-02-18T09:56:21.067Z,99455.19
2023-02-18T09:58:48.641Z,99449.12
2023-02-18T10:01:24.717Z,99449.91
2023-02-18T10:03:54.250Z,99456.03
2023-02-18T10:06:24.286Z,99444.09
2023-02-18T10:08:52.166Z,99447.50
2023-02-18T10:11:28.513Z,99440.94
2023-02-18T10:13:56.290Z,99436.78
2023-02-18T10:16:24.103Z,99434.31
2023-02-18T10:18:54.828Z,99439.97
2023-02-18T10:21:33.066Z,99440.44
2023-02-18T10:24:01.064Z,99439.59
2023-02-18T10:26:29.602Z,99438.50
2023-02-18T10:28:56.924Z,99442.56
2023-02-18T10:31:34.626Z,99438.72
2023-02-18T10:34:14.498Z,99440.06
2023-02-18T10:36:45.542Z,99432.16
2023-02-18T10:39:32.637Z,99441.28
2023-02-18T10:42:18.782Z,99427.44
2023-02-18T10:44:53.173Z,99426.09
2023-02-18T10:47:29.467Z,99418.53
2023-02-18T10:49:59.697Z,99424.66
2023-02-18T10:52:27.934Z,99419.53
2023-02-18T10:54:59.136Z,99405.53
2023-02-18T10:57:26.820Z,99405.81
2023-02-18T10:59:55.109Z,99402.31
2023-02-18T11:02:23.870Z,99398.53
2023-02-18T11:04:51.490Z,99394.22
2023-02-18T11:07:19.965Z,99394.78
2023-02-18T11:09:56.737Z,99386.75
2023-02-18T11:12:25.342Z,99392.75
2023-02-18T11:15:16.446Z,99380.78
2023-02-18T11:17:45.400Z,99382.03
2023-02-18T11:20:22.840Z,99370.69
2023-02-18T11:22:50.498Z,99363.94
2023-02-18T11:25:24.805Z,99359.88
2023-02-18T11:27:53.410Z,99361.75
2023-02-18T11:30:24.719Z,99359.78
2023-02-18T11:32:53.732Z,99365.34
2023-02-18T11:35:21.905Z,99353.97
2023-02-18T11:37:49.287Z,99344.94
2023-02-18T11:40:23.140Z,99345.37
2023-02-18T11:42:50.324Z,99338.09
2023-02-18T11:45:28.537Z,99340.06
2023-02-18T11:48:00.040Z,99346.63
2023-02-18T11:50:30.386Z,99324.03
2023-02-18T11:52:58.908Z,99330.94
2023-02-18T11:55:27.427Z,99316.97
2023-02-18T11:57:54.858Z,99323.72
2023-02-18T12:00:23.693Z,99324.81
2023-02-18T12:02:52.124Z,99310.94
2023-02-18T12:05:23.784Z,99299.53
2023-02-18T12:07:51.301Z,99303.69
2023-02-18T12:10:33.651Z,99288.56
2023-02-18T12:13:05.958Z,99286.28
2023-02-18T12:15:48.576Z,99273.50
2023-02-18T12:18:48.526Z,99274.34
2023-02-18T12:21:18.647Z,99271.44
2023-02-18T12:23:49.326Z,99258.12
2023-02-18T12:26:20.141Z,99251.22
2023-02-18T12:28:53.577Z,99269.22
2023-02-18T12:31:59.217Z,99257.62
2023-02-18T12:34:31.295Z,99256.03
2023-02-18T12:37:10.983Z,99260.25
2023-02-18T12:39:53.593Z,99252.31
2023-02-18T12:42:26.737Z,99257.34
2023-02-18T12:45:20.662Z,99252.25
2023-02-18T12:47:56.799Z,99248.16
2023-02-18T12:50:27.771Z,99235.00
2023-02-18T12:53:03.607Z,99227.66
2023-02-18T12:55:34.562Z,99228.00
2023-02-18T12:58:27.999Z,99232.44
2023-02-18T13:00:58.451Z,99228.41
2023-02-18T13:03:31.760Z,99229.69
2023-02-18T13:06:02.738Z,99227.94
2023-02-18T13:09:05.261Z,99225.44
2023-02-18T13:11:37.495Z,99216.44
2023-02-18T13:14:09.360Z,99209.00
2023-02-18T13:16:37.126Z,99209.59
2023-02-18T13:19:27.572Z,99214.63
2023-02-18T13:21:59.141Z,99217.69
2023-02-18T13:24:28.295Z,99212.97
2023-02-18T13:26:59.299Z,99211.66
2023-02-18T13:29:29.056Z,99213.28
2023-02-18T13:31:56.923Z,99203.56
2023-02-18T13:34:28.873Z,99196.88
2023-02-18T13:37:16.779Z,99192.00
2023-02-18T13:39:53.133Z,99213.69
2023-02-18T13:42:24.240Z,99200.44
2023-02-18T13:45:03.484Z,99188.59
2023-02-18T13:47:38.551Z,99188.72
2023-02-18T13:50:27.114Z,99179.19
2023-02-18T13:52:59.684Z,99182.06
2023-02-18T13:55:32.821Z,99183.06
2023-02-18T13:58:00.368Z,99180.47
2023-02-18T14:00:34.952Z,99179.44
2023-02-18T14:03:03.524Z,99166.12
2023-02-18T14:05:41.198Z,99168.06
2023-02-18T14:08:15.399Z,99161.97
2023-02-18T14:10:42.688Z,99154.00
2023-02-18T14:13:20.986Z,99154.25
2023-02-18T14:15:59.514Z,99142.91
2023-02-18T14:18:31.119Z,99139.06
2023-02-18T14:21:13.860Z,99134.47
2023-02-18T14:23:42.670Z,99117.91
2023-02-18T14:26:16.281Z,99116.53
2023-02-18T14:28:44.901Z,99112.28
2023-02-18T14:31:13.051Z,99109.16
2023-02-18T14:33:41.718Z,99115.44
2023-02-18T14:36:15.071Z,99105.19
2023-02-18T14:38:42.178Z,99102.50
2023-02-18T14:41:34.436Z,99090.88
2023-02-18T14:44:04.869Z,99090.75
2023-02-18T14:46:51.349Z,99082.84
2023-02-18T14:49:28.594Z,99094.28
2023-02-18T14:51:56.923Z,99095.75
2023-02-18T14:54:25.173Z,99091.59
2023-02-18T14:56:56.796Z,99093.19
2023-02-18T14:59:28.722Z,99078.75
2023-02-18T15:01:56.720Z,99090.94
2023-02-18T15:04:25.182Z,99099.91
2023-02-18T15:07:04.596Z,99083.50
2023-02-18T15:09:32.786Z,99073.69
2023-02-18T15:12:06.876Z,99072.88
2023-02-18T15:14:35.922Z,99078.41
2023-02-18T15:17:03.261Z,99072.28
2023-02-18T15:19:32.756Z,99068.97
2023-02-18T15:22:02.098Z,99067.59
2023-02-18T15:24:37.025Z,99061.53
2023-02-18T15:27:07.131Z,99065.22
2023-02-18T15:29:35.064Z,99068.63
2023-02-18T15:32:08.709Z,99065.94
2023-02-18T15:34:37.749Z,99066.22
2023-02-18T15:37:12.301Z,99064.28
2023-02-18T15:39:42.336Z,99061.09
2023-02-18T15:42:19.034Z,99067.16
2023-02-18T15:44:52.244Z,99064.28
2023-02-18T15:47:21.431Z,99064.44
2023-02-18T15:49:50.804Z,99063.37
2023-02-18T15:52:22.616Z,99060.12
2023-02-18T15:54:50.345Z,99065.34
2023-02-18T15:57:18.085Z,99053.12
2023-02-18T15:59:54.523Z,99056.97
2023-02-18T16:02:24.271Z,99057.75
2023-02-18T16:04:55.405Z,99044.34
2023-02-18T16:07:24.946Z,99038.16
2023-02-18T16:10:11.633Z,99048.91
2023-02-18T16:12:39.806Z,99048.84
2023-02-18T16:15:09.838Z,99049.69
2023-02-18T16:17:37.336Z,99045.44
2023-02-18T16:20:23.298Z,99049.31
2023-02-18T16:22:52.747Z,99045.25
2023-02-18T16:25:28.185Z,99044.47
2023-02-18T16:27:59.326Z,99048.09
2023-02-18T16:30:29.384Z,99037.09
2023-02-18T16:32:59.104Z,99034.69
2023-02-18T16:35:30.654Z,99031.94
2023-02-18T16:38:00.996Z,99030.78
2023-02-18T16:40:30.209Z,99023.56
2023-02-18T16:43:02.067Z,99022.94
2023-02-18T16:45:33.909Z,99015.34
2023-02-18T16:48:01.720Z,99013.16
2023-02-18T16:50:30.225Z,99015.81
2023-02-18T16:52:58.212Z,99018.19
2023-02-18T16:55:27.232Z,99024.97
2023-02-18T16:57:55.353Z,99018.31
2023-02-18T17:00:23.677Z,99016.59
2023-02-18T17:02:52.229Z,99012.13
2023-02-18T17:05:28.161Z,99019.97
2023-02-18T17:07:57.642Z,99017.75
2023-02-18T17:10:25.367Z,99026.28
2023-02-18T17:12:53.101Z,99028.47
2023-02-18T17:15:20.646Z,99031.75
2023-02-18T17:17:52.142Z,99026.47
2023-02-18T17:20:20.252Z,99029.84
2023-02-18T17:22:48.247Z,99029.12
2023-02-18T17:25:19.148Z,99032.75
2023-02-18T17:27:48.056Z,99028.13
2023-02-18T17:30:16.590Z,99039.97
2023-02-18T17:32:44.739Z,99042.75
2023-02-18T17:35:17.032Z,99041.69
2023-02-18T17:37:45.197Z,99026.37
2023-02-18T17:40:14.221Z,99036.16
2023-02-18T17:42:43.273Z,99030.81
2023-02-18T17:45:21.551Z,99027.63
2023-02-18T17:47:49.766Z,99029.47
2023-02-18T17:50:17.908Z,99017.34
2023-02-18T17:52:45.877Z,99029.28
2023-02-18T17:55:35.103Z,99026.53
2023-02-18T17:58:04.572Z,99021.81
2023-02-18T18:00:36.127Z,99016.59
2023-02-18T18:03:06.331Z,99020.91
2023-02-18T18:05:35.377Z,99016.94
2023-02-18T18:08:04.109Z,99023.31
2023-02-18T18:10:33.997Z,99024.78
2023-02-18T18:13:02.602Z,99032.47
2023-02-18T18:15:40.290Z,99032.19
2023-02-18T18:18:11.619Z,99028.84
2023-02-18T18:20:40.088Z,99034.66
2023-02-18T18:23:08.893Z,99040.16
2023-02-18T18:25:38.469Z,99036.72
2023-02-18T18:28:07.352Z,99031.31
2023-02-18T18:30:36.770Z,99023.81
2023-02-18T18:33:05.328Z,99026.78
2023-02-18T18:35:34.984Z,99027.16
2023-02-18T18:38:06.196Z,99035.28
2023-02-18T18:40:35.404Z,99051.19
2023-02-18T18:43:03.742Z,99063.84
2023-02-18T18:45:32.996Z,99053.47
2023-02-18T18:48:01.365Z,99056.03
2023-02-18T18:50:30.128Z,99050.50
2023-02-18T18:52:59.786Z,99057.38
2023-02-18T18:55:33.450Z,99053.16
2023-02-18T18:58:02.272Z,99042.41
2023-02-18T19:00:35.778Z,99056.87
2023-02-18T19:03:05.536Z,99067.53
2023-02-18T19:05:36.012Z,99068.72
2023-02-18T19:08:05.364Z,99060.69
2023-02-18T19:10:42.718Z,99056.47
2023-02-18T19:13:11.083Z,99061.81
2023-02-18T19:15:41.394Z,99066.38
2023-02-18T19:18:12.106Z,99068.63
2023-02-18T19:20:43.007Z,99052.31
2023-02-18T19:23:11.611Z,99057.56
2023-02-18T19:25:40.979Z,99058.25
2023-02-18T19:28:10.801Z,99066.28
2023-02-18T19:30:38.267Z,99075.28
2023-02-18T19:33:09.344Z,99068.38
2023-02-18T19:35:38.527Z,99082.94
2023-02-18T19:38:10.719Z,99083.22
2023-02-18T19:40:39.753Z,99088.41
2023-02-18T19:43:08.831Z,99088.28
2023-02-18T19:45:42.495Z,99080.56
2023-02-18T19:48:11.841Z,99088.22
2023-02-18T19:50:40.316Z,99095.03
2023-02-18T19:53:08.460Z,99079.31
2023-02-18T19:55:37.990Z,99086.37
2023-02-18T19:58:13.589Z,99083.56
2023-02-18T20:00:44.209Z,99088.06
2023-02-18T20:03:13.592Z,99074.00
2023-02-18T20:05:41.760Z,99073.00
2023-02-18T20:08:10.138Z,99084.66
2023-02-18T20:10:39.021Z,99086.53
2023-02-18T20:13:11.442Z,99079.97
2023-02-18T20:15:40.725Z,99068.63
2023-02-18T20:18:12.763Z,99071.84
2023-02-18T20:20:42.107Z,99080.94
2023-02-18T20:23:09.751Z,99088.44
2023-02-18T20:25:38.449Z,99093.69
2023-02-18T20:28:09.224Z,99104.84
2023-02-18T20:30:40.065Z,99107.09
2023-02-18T20:33:08.902Z,99108.63
2023-02-18T20:35:36.493Z,99110.16
2023-02-18T20:38:05.471Z,99113.75
2023-02-18T20:40:33.794Z,99120.03
2023-02-18T20:43:02.086Z,99106.00
2023-02-18T20:45:30.055Z,99116.41
2023-02-18T20:47:58.532Z,99111.63
2023-02-18T20:50:26.748Z,99110.38
2023-02-18T20:52:55.279Z,99116.78
2023-02-18T20:55:24.633Z,99122.88
2023-02-18T20:57:53.036Z,99119.34
2023-02-18T21:00:20.541Z,99114.97
2023-02-18T21:02:49.573Z,99118.34
2023-02-18T21:05:20.112Z,99119.91
2023-02-18T21:07:48.333Z,99129.91
2023-02-18T21:10:18.115Z,99110.44
2023-02-18T21:12:45.958Z,99123.38
2023-02-18T21:15:14.216Z,99125.41
2023-02-18T21:17:42.157Z,99133.41
2023-02-18T21:20:10.345Z,99114.56
2023-02-18T21:22:38.474Z,99121.09
2023-02-18T21:25:06.950Z,99121.16
2023-02-18T21:27:34.863Z,99128.66
2023-02-18T21:30:04.541Z,99123.91
2023-02-18T21:32:32.551Z,99132.41
2023-02-18T21:35:02.313Z,99131.59
2023-02-18T21:37:30.189Z,99144.56
2023-02-18T21:39:59.196Z,99125.59
2023-02-18T21:42:27.373Z,99131.44
2023-02-18T21:44:56.859Z,99133.09
2023-02-18T21:47:24.758Z,99133.13
2023-02-18T21:49:52.183Z,99131.03
2023-02-18T21:52:19.635Z,99133.31
2023-02-18T21:54:46.888Z,99128.62
2023-02-18T21:57:15.423Z,99137.72
2023-02-18T21:59:43.069Z,99139.97
2023-02-18T22:02:21.202Z,99137.72
2023-02-18T22:04:49.585Z,99129.81
2023-02-18T22:07:17.000Z,99148.72
2023-02-18T22:09:46.710Z,99138.56
2023-02-18T22:12:17.170Z,99160.06
2023-02-18T22:14:44.760Z,99148.63
2023-02-18T22:17:12.115Z,99149.50
2023-02-18T22:19:39.633Z,99150.22
2023-02-18T22:22:06.778Z,99141.19
2023-02-18T22:24:33.951Z,99157.72
2023-02-18T22:27:01.557Z,99154.41
2023-02-18T22:29:29.510Z,99174.97
2023-02-18T22:31:56.771Z,99164.63
2023-02-18T22:34:24.257Z,99162.97
2023-02-18T22:36:51.404Z,99180.19
2023-02-18T22:39:18.553Z,99182.72
2023-02-18T22:41:45.982Z,99170.22
2023-02-18T22:44:14.702Z,99174.25
2023-02-18T22:46:41.833Z,99172.53
2023-02-18T22:49:09.421Z,99172.81
2023-02-18T22:51:38.544Z,99174.12
2023-02-18T22:54:06.345Z,99172.53
2023-02-18T22:56:33.767Z,99186.41
2023-02-18T22:59:00.974Z,99168.22
2023-02-18T23:01:32.712Z,99176.84
2023-02-18T23:04:10.497Z,99172.25
2023-02-18T23:06:38.233Z,99175.53
2023-02-18T23:09:06.161Z,99159.28
2023-02-18T23:11:36.082Z,99163.81
2023-02-18T23:14:18.521Z,99172.34
2023-02-18T23:17:05.406Z,99176.59
2023-02-18T23:19:32.770Z,99175.03
2023-02-18T23:22:00.207Z,99173.44
2023-02-18T23:24:27.375Z,99168.00
2023-02-18T23:26:54.580Z,99171.63
2023-02-18T23:29:22.308Z,99176.69
2023-02-18T23:31:49.589Z,99182.62
2023-02-18T23:34:17.081Z,99171.44
2023-02-18T23:36:44.589Z,99177.16
2023-02-18T23:39:13.472Z,99175.97
2023-02-18T23:41:40.795Z,99178.63
2023-02-18T23:44:09.932Z,99182.09
2023-02-18T23:46:37.365Z,99182.06
2023-02-18T23:49:05.135Z,99179.31
2023-02-18T23:51:32.669Z,99183.81
2023-02-18T23:54:02.007Z,99193.34
2023-02-18T23:56:29.309Z,99173.31
2023-02-18T23:58:57.804Z,99190.84
